createdAt,value
2018-05-12T00:01:22.830Z,66.60
2018-05-12T00:03:51.869Z,66.60
2018-05-12T00:06:20.153Z,66.70
2018-05-12T00:08:48.427Z,66.80
2018-05-12T00:11:16.730Z,66.80
2018-05-12T00:13:44.991Z,66.90
2018-05-12T00:16:13.301Z,67.00
2018-05-12T00:18:41.553Z,67.10
2018-05-12T00:21:09.849Z,67.10
2018-05-12T00:23:38.595Z,67.40
2018-05-12T00:26:06.878Z,67.30
2018-05-12T00:28:35.183Z,67.50
2018-05-12T00:31:03.439Z,67.50
2018-05-12T00:33:31.742Z,67.60
2018-05-12T00:36:00.028Z,67.80
2018-05-12T00:38:28.313Z,67.80
2018-05-12T00:40:56.606Z,67.90
2018-05-12T00:43:25.671Z,68.10
2018-05-12T00:45:53.978Z,68.10
2018-05-12T00:48:23.026Z,68.30
2018-05-12T00:50:51.314Z,68.20
2018-05-12T00:53:19.601Z,68.20
2018-05-12T00:55:47.884Z,68.50
2018-05-12T00:58:16.176Z,68.40
2018-05-12T01:00:44.414Z,68.50
2018-05-12T01:03:12.717Z,68.50
2018-05-12T01:05:40.991Z,68.70
2018-05-12T01:08:09.272Z,68.70
2018-05-12T01:10:37.593Z,68.80
2018-05-12T01:13:05.958Z,69.00
2018-05-12T01:15:34.933Z,69.30
2018-05-12T01:18:03.197Z,69.30
2018-05-12T01:20:31.512Z,69.50
2018-05-12T01:23:00.561Z,69.80
2018-05-12T01:25:29.593Z,70.20
2018-05-12T01:27:57.885Z,70.20
2018-05-12T01:30:26.145Z,70.10
2018-05-12T01:32:54.431Z,70.10
2018-05-12T01:35:23.489Z,70.40
2018-05-12T01:37:51.743Z,70.50
2018-05-12T01:40:20.046Z,70.60
2018-05-12T01:42:48.312Z,70.80
2018-05-12T01:45:16.614Z,70.90
2018-05-12T01:47:44.890Z,71.00
2018-05-12T01:50:13.155Z,71.00
2018-05-12T01:52:41.511Z,71.10
2018-05-12T01:55:09.829Z,71.20
2018-05-12T01:57:38.095Z,71.40
2018-05-12T02:00:06.362Z,71.80
2018-05-12T02:02:34.659Z,71.60
2018-05-12T02:05:02.935Z,72.50
2018-05-12T02:07:31.240Z,71.90
2018-05-12T02:09:59.497Z,72.10
2018-05-12T02:12:27.783Z,72.30
2018-05-12T02:14:56.077Z,72.30
2018-05-12T02:17:25.165Z,72.50
2018-05-12T02:19:54.257Z,72.70
2018-05-12T02:22:22.540Z,72.70
2018-05-12T02:24:50.798Z,72.70
2018-05-12T02:27:19.084Z,72.80
2018-05-12T02:29:48.141Z,73.20
2018-05-12T02:32:17.189Z,73.20
2018-05-12T02:34:45.529Z,73.20
2018-05-12T02:37:13.730Z,73.30
2018-05-12T02:39:42.002Z,73.70
2018-05-12T02:42:10.273Z,73.70
2018-05-12T02:44:38.570Z,73.80
2018-05-12T02:47:06.840Z,73.80
2018-05-12T02:49:35.143Z,73.90
2018-05-12T02:52:04.178Z,74.00
2018-05-12T02:54:32.510Z,74.10
2018-05-12T02:57:00.772Z,74.20
2018-05-12T02:59:29.077Z,74.30
2018-05-12T03:01:58.110Z,74.70
2018-05-12T03:04:26.380Z,74.80
2018-05-12T03:06:54.671Z,74.70
2018-05-12T03:09:22.934Z,74.80
2018-05-12T03:11:51.255Z,74.80
2018-05-12T03:14:19.519Z,74.90
2018-05-12T03:16:47.827Z,75.00
2018-05-12T03:19:16.083Z,75.10
2018-05-12T03:21:44.360Z,75.20
2018-05-12T03:24:12.669Z,75.90
2018-05-12T03:26:40.923Z,75.20
2018-05-12T03:29:09.249Z,75.20
2018-05-12T03:31:37.546Z,75.40
2018-05-12T03:34:05.850Z,75.40
2018-05-12T03:36:34.098Z,75.50
2018-05-12T03:39:02.425Z,75.30
2018-05-12T03:41:31.455Z,75.50
2018-05-12T03:43:59.724Z,75.50
2018-05-12T03:46:28.017Z,75.60
2018-05-12T03:48:56.288Z,75.50
2018-05-12T03:51:24.572Z,75.60
2018-05-12T03:53:53.458Z,75.60
2018-05-12T03:56:21.745Z,75.60
2018-05-12T03:58:50.770Z,75.60
2018-05-12T04:01:19.078Z,75.60
2018-05-12T04:03:48.125Z,75.50
2018-05-12T04:06:28.236Z,75.50
2018-05-12T04:09:08.277Z,75.50
2018-05-12T04:11:48.412Z,75.30
2018-05-12T04:14:16.700Z,75.30
2018-05-12T04:16:44.966Z,75.90
2018-05-12T04:19:13.259Z,75.10
2018-05-12T04:21:41.512Z,75.30
2018-05-12T04:24:09.821Z,75.20
2018-05-12T04:26:38.070Z,75.20
2018-05-12T04:29:06.370Z,75.00
2018-05-12T04:31:34.629Z,74.80
2018-05-12T04:34:02.936Z,74.70
2018-05-12T04:36:31.210Z,74.60
2018-05-12T04:38:59.465Z,75.30
2018-05-12T04:41:27.776Z,74.60
2018-05-12T04:43:56.031Z,74.60
2018-05-12T04:46:24.320Z,74.70
2018-05-12T04:48:52.578Z,74.60
2018-05-12T04:51:20.840Z,74.60
2018-05-12T04:53:49.134Z,74.60
2018-05-12T04:56:17.429Z,74.50
2018-05-12T04:58:45.694Z,74.50
2018-05-12T05:01:13.954Z,74.30
2018-05-12T05:03:42.245Z,74.20
2018-05-12T05:06:10.504Z,74.10
2018-05-12T05:08:40.498Z,74.00
2018-05-12T05:11:08.764Z,73.80
2018-05-12T05:13:37.024Z,73.80
2018-05-12T05:16:05.325Z,73.70
2018-05-12T05:18:33.611Z,73.70
2018-05-12T05:21:01.909Z,73.80
2018-05-12T05:23:30.186Z,73.80
2018-05-12T05:25:58.464Z,74.00
2018-05-12T05:28:29.552Z,73.60
2018-05-12T05:30:57.808Z,73.30
2018-05-12T05:33:26.177Z,73.30
2018-05-12T05:35:55.607Z,73.10
2018-05-12T05:38:23.856Z,72.90
2018-05-12T05:40:52.141Z,72.80
2018-05-12T05:43:20.485Z,72.60
2018-05-12T05:45:49.533Z,72.40
2018-05-12T05:48:17.800Z,72.50
2018-05-12T05:50:46.085Z,72.30
2018-05-12T05:53:14.348Z,72.00
2018-05-12T05:55:42.668Z,71.60
2018-05-12T05:58:11.467Z,71.60
2018-05-12T06:00:40.537Z,71.20
2018-05-12T06:03:08.901Z,71.10
2018-05-12T06:05:37.169Z,70.90
2018-05-12T06:08:05.462Z,70.80
2018-05-12T06:10:33.726Z,70.70
2018-05-12T06:13:02.078Z,70.50
2018-05-12T06:15:30.337Z,70.40
2018-05-12T06:17:58.677Z,70.10
2018-05-12T06:20:26.942Z,69.70
2018-05-12T06:22:55.219Z,69.70
2018-05-12T06:25:23.513Z,69.80
2018-05-12T06:27:51.777Z,69.60
2018-05-12T06:30:20.096Z,69.60
2018-05-12T06:32:50.055Z,68.80
2018-05-12T06:35:18.382Z,68.90
2018-05-12T06:37:47.419Z,68.60
2018-05-12T06:40:15.730Z,68.60
2018-05-12T06:42:44.011Z,68.30
2018-05-12T06:45:12.323Z,68.00
2018-05-12T06:47:41.375Z,67.70
2018-05-12T06:50:09.670Z,67.80
2018-05-12T06:52:37.953Z,67.60
2018-05-12T06:55:07.033Z,67.20
2018-05-12T06:57:35.345Z,67.20
2018-05-12T07:00:04.387Z,67.20
2018-05-12T07:02:32.701Z,67.10
2018-05-12T07:05:00.975Z,67.00
2018-05-12T07:07:29.252Z,67.10
2018-05-12T07:09:57.547Z,66.90
2018-05-12T07:12:26.896Z,66.40
2018-05-12T07:14:55.835Z,66.20
2018-05-12T07:17:24.090Z,66.10
2018-05-12T07:19:52.381Z,66.10
2018-05-12T07:22:21.453Z,65.80
2018-05-12T07:24:49.783Z,65.80
2018-05-12T07:27:18.815Z,65.20
2018-05-12T07:29:47.108Z,65.90
2018-05-12T07:32:15.381Z,65.20
2018-05-12T07:34:43.662Z,65.20
2018-05-12T07:37:11.960Z,65.00
2018-05-12T07:39:40.252Z,64.80
2018-05-12T07:42:08.537Z,64.70
2018-05-12T07:44:37.583Z,64.80
2018-05-12T07:47:05.869Z,64.80
2018-05-12T07:49:34.199Z,65.00
2018-05-12T07:52:03.251Z,64.80
2018-05-12T07:54:31.560Z,64.90
2018-05-12T07:56:59.852Z,64.70
2018-05-12T07:59:28.125Z,64.90
2018-05-12T08:01:57.174Z,64.80
2018-05-12T08:04:25.468Z,64.80
2018-05-12T08:06:53.737Z,64.80
2018-05-12T08:09:22.019Z,65.00
2018-05-12T08:11:50.332Z,65.10
2018-05-12T08:14:19.379Z,65.00
2018-05-12T08:16:47.671Z,64.90
2018-05-12T08:19:15.938Z,65.00
2018-05-12T08:21:44.237Z,64.90
2018-05-12T08:24:12.506Z,64.80
2018-05-12T08:26:41.603Z,64.40
2018-05-12T08:29:09.874Z,64.30
2018-05-12T08:31:38.162Z,64.60
2018-05-12T08:34:06.439Z,64.40
2018-05-12T08:36:34.711Z,64.30
2018-05-12T08:39:03.012Z,64.10
2018-05-12T08:41:31.294Z,63.80
2018-05-12T08:43:59.595Z,63.60
2018-05-12T08:46:27.852Z,63.10
2018-05-12T08:48:56.186Z,63.00
2018-05-12T08:51:24.499Z,62.90
2018-05-12T08:53:52.755Z,62.50
2018-05-12T08:56:21.070Z,62.10
2018-05-12T08:58:50.111Z,61.70
2018-05-12T09:01:18.409Z,62.10
2018-05-12T09:03:46.697Z,61.40
2018-05-12T09:06:14.993Z,60.90
2018-05-12T09:08:43.292Z,60.50
2018-05-12T09:11:11.560Z,60.30
2018-05-12T09:13:39.868Z,60.20
2018-05-12T09:16:08.136Z,60.10
2018-05-12T09:18:36.403Z,59.80
2018-05-12T09:21:04.707Z,59.70
2018-05-12T09:23:32.976Z,59.40
2018-05-12T09:26:01.289Z,59.10
2018-05-12T09:28:29.573Z,58.90
2018-05-12T09:30:57.888Z,59.40
2018-05-12T09:33:26.909Z,58.00
2018-05-12T09:35:55.179Z,58.00
2018-05-12T09:38:23.475Z,57.90
2018-05-12T09:40:51.754Z,57.70
2018-05-12T09:43:20.845Z,57.40
2018-05-12T09:45:49.111Z,57.40
2018-05-12T09:48:17.431Z,57.40
2018-05-12T09:50:45.706Z,57.20
2018-05-12T09:53:13.985Z,57.30
2018-05-12T09:55:42.292Z,57.20
2018-05-12T09:58:11.327Z,56.80
2018-05-12T10:00:39.646Z,56.80
2018-05-12T10:03:07.940Z,56.60
2018-05-12T10:05:36.236Z,56.10
2018-05-12T10:08:05.290Z,55.80
2018-05-12T10:10:33.574Z,55.80
2018-05-12T10:13:01.947Z,55.30
2018-05-12T10:15:30.282Z,55.00
2018-05-12T10:17:58.572Z,54.80
2018-05-12T10:20:26.844Z,54.70
2018-05-12T10:22:55.182Z,54.60
2018-05-12T10:25:23.472Z,54.60
2018-05-12T10:27:51.787Z,54.20
2018-05-12T10:30:20.089Z,53.80
2018-05-12T10:32:48.406Z,53.50
2018-05-12T10:35:17.508Z,52.90
2018-05-12T10:37:46.597Z,52.50
2018-05-12T10:40:14.953Z,52.50
2018-05-12T10:42:43.274Z,52.00
2018-05-12T10:45:12.367Z,51.50
2018-05-12T10:47:40.700Z,51.50
2018-05-12T10:50:09.021Z,51.50
2018-05-12T10:52:37.309Z,51.40
2018-05-12T10:55:05.582Z,51.20
2018-05-12T10:57:34.764Z,50.20
2018-05-12T11:00:03.098Z,50.10
2018-05-12T11:02:31.461Z,50.40
2018-05-12T11:04:59.747Z,50.30
2018-05-12T11:07:28.106Z,50.50
2018-05-12T11:09:57.215Z,51.10
2018-05-12T11:12:25.480Z,50.50
2018-05-12T11:14:53.795Z,50.10
2018-05-12T11:17:22.081Z,50.10
2018-05-12T11:19:50.387Z,50.00
2018-05-12T11:22:19.379Z,50.00
2018-05-12T11:24:47.689Z,50.00
2018-05-12T11:27:16.024Z,49.40
2018-05-12T11:29:44.329Z,48.80
2018-05-12T11:32:12.661Z,48.30
2018-05-12T11:34:40.923Z,47.20
2018-05-12T11:37:10.100Z,45.20
2018-05-12T11:39:39.177Z,44.40
2018-05-12T11:42:07.470Z,44.30
2018-05-12T11:44:35.872Z,44.20
2018-05-12T11:47:04.046Z,43.70
2018-05-12T11:49:32.359Z,42.70
2018-05-12T11:52:00.623Z,42.20
2018-05-12T11:54:29.003Z,41.40
2018-05-12T11:56:58.144Z,41.00
2018-05-12T11:59:27.215Z,40.10
2018-05-12T12:01:55.657Z,40.00
2018-05-12T12:04:23.967Z,37.40
2018-05-12T12:06:52.283Z,37.70
2018-05-12T12:09:20.690Z,36.40
2018-05-12T12:11:49.052Z,36.00
2018-05-12T12:14:17.396Z,35.60
2018-05-12T12:16:45.745Z,35.00
2018-05-12T12:19:13.999Z,34.60
2018-05-12T12:21:42.276Z,34.00
2018-05-12T12:24:10.575Z,32.80
2018-05-12T12:26:38.858Z,31.90
2018-05-12T12:29:07.192Z,32.00
2018-05-12T12:31:35.945Z,32.10
2018-05-12T12:34:04.245Z,31.30
2018-05-12T12:36:32.512Z,30.70
2018-05-12T12:39:00.863Z,30.40
2018-05-12T12:41:29.159Z,30.30
2018-05-12T12:43:57.448Z,30.30
2018-05-12T12:46:25.799Z,29.80
2018-05-12T12:48:54.071Z,29.50
2018-05-12T12:51:22.384Z,29.20
2018-05-12T12:53:50.680Z,29.20
2018-05-12T12:56:19.005Z,29.10
2018-05-12T12:58:47.289Z,28.90
2018-05-12T13:01:17.251Z,29.00
2018-05-12T13:03:45.521Z,29.00
2018-05-12T13:06:13.872Z,29.00
2018-05-12T13:08:43.392Z,29.20
2018-05-12T13:11:12.540Z,29.20
2018-05-12T13:13:40.829Z,29.30
2018-05-12T13:16:09.951Z,29.20
2018-05-12T13:18:38.237Z,29.10
2018-05-12T13:21:06.626Z,28.90
2018-05-12T13:23:34.906Z,28.70
2018-05-12T13:26:03.204Z,28.20
2018-05-12T13:28:31.533Z,28.10
2018-05-12T13:30:59.844Z,28.30
2018-05-12T13:33:28.154Z,27.70
2018-05-12T13:35:56.386Z,27.90
2018-05-12T13:38:24.685Z,28.40
2018-05-12T13:40:52.998Z,28.70
2018-05-12T13:43:22.043Z,28.50
2018-05-12T13:45:50.351Z,28.50
2018-05-12T13:48:18.635Z,27.90
2018-05-12T13:50:46.917Z,27.70
2018-05-12T13:53:15.206Z,27.50
2018-05-12T13:55:44.305Z,27.40
2018-05-12T13:58:12.562Z,27.40
2018-05-12T14:00:40.868Z,27.10
2018-05-12T14:03:09.887Z,27.20
2018-05-12T14:05:39.020Z,27.10
2018-05-12T14:08:07.316Z,27.60
2018-05-12T14:10:35.598Z,27.30
2018-05-12T14:13:04.619Z,27.90
2018-05-12T14:15:32.952Z,27.90
2018-05-12T14:18:01.293Z,28.60
2018-05-12T14:20:29.483Z,29.20
2018-05-12T14:22:57.781Z,29.70
2018-05-12T14:25:26.061Z,30.10
2018-05-12T14:27:54.354Z,30.80
2018-05-12T14:30:23.436Z,31.80
2018-05-12T14:32:51.732Z,31.70
2018-05-12T14:35:20.002Z,32.10
2018-05-12T14:37:48.304Z,32.00
2018-05-12T14:40:17.351Z,31.50
2018-05-12T14:42:45.754Z,32.20
2018-05-12T14:45:13.970Z,31.00
2018-05-12T14:47:42.278Z,31.20
2018-05-12T14:50:10.556Z,30.60
2018-05-12T14:52:38.908Z,30.20
2018-05-12T14:55:07.178Z,30.20
2018-05-12T14:57:38.727Z,30.10
2018-05-12T15:00:07.021Z,30.00
2018-05-12T15:02:35.383Z,29.90
2018-05-12T15:05:04.869Z,29.30
2018-05-12T15:07:33.175Z,29.30
2018-05-12T15:10:01.463Z,29.40
2018-05-12T15:12:29.783Z,29.70
2018-05-12T15:14:58.064Z,29.80
2018-05-12T15:17:26.354Z,29.70
2018-05-12T15:19:54.608Z,29.50
2018-05-12T15:22:22.903Z,29.50
2018-05-12T15:24:51.161Z,29.70
2018-05-12T15:27:19.452Z,29.80
2018-05-12T15:29:47.767Z,29.70
2018-05-12T15:32:16.119Z,29.90
2018-05-12T15:34:45.197Z,30.00
2018-05-12T15:37:13.574Z,30.00
2018-05-12T15:39:41.850Z,30.10
2018-05-12T15:42:10.144Z,30.40
2018-05-12T15:44:38.424Z,30.30
2018-05-12T15:47:06.713Z,30.10
2018-05-12T15:49:34.999Z,30.00
2018-05-12T15:52:03.286Z,29.90
2018-05-12T15:54:32.318Z,29.90
2018-05-12T15:57:00.598Z,29.90
2018-05-12T15:59:28.899Z,29.90
2018-05-12T16:01:57.158Z,30.00
2018-05-12T16:04:25.451Z,29.90
2018-05-12T16:06:53.732Z,30.10
2018-05-12T16:09:22.011Z,30.50
2018-05-12T16:11:50.281Z,30.60
2018-05-12T16:14:18.603Z,30.40
2018-05-12T16:16:46.862Z,30.50
2018-05-12T16:19:15.159Z,30.90
2018-05-12T16:21:43.466Z,31.00
2018-05-12T16:24:11.769Z,31.20
2018-05-12T16:26:40.042Z,31.40
2018-05-12T16:29:08.395Z,31.60
2018-05-12T16:31:36.752Z,32.10
2018-05-12T16:34:04.989Z,32.40
2018-05-12T16:36:33.295Z,32.70
2018-05-12T16:39:01.576Z,33.10
2018-05-12T16:41:30.661Z,34.00
2018-05-12T16:43:58.952Z,33.90
2018-05-12T16:46:27.999Z,34.60
2018-05-12T16:48:56.367Z,34.70
2018-05-12T16:51:24.634Z,35.00
2018-05-12T16:53:52.931Z,35.50
2018-05-12T16:56:21.266Z,35.80
2018-05-12T16:58:49.584Z,36.10
2018-05-12T17:01:17.858Z,36.30
2018-05-12T17:03:46.155Z,36.80
2018-05-12T17:06:14.431Z,36.90
2018-05-12T17:08:43.647Z,37.10
2018-05-12T17:11:11.932Z,37.30
2018-05-12T17:13:40.273Z,37.60
2018-05-12T17:16:08.546Z,38.00
2018-05-12T17:18:36.863Z,38.20
2018-05-12T17:21:05.168Z,38.40
2018-05-12T17:23:33.434Z,38.60
2018-05-12T17:26:01.775Z,39.00
2018-05-12T17:28:30.053Z,40.00
2018-05-12T17:30:58.346Z,39.70
2018-05-12T17:33:26.794Z,40.00
2018-05-12T17:35:55.080Z,40.50
2018-05-12T17:38:23.386Z,41.30
2018-05-12T17:40:51.697Z,40.90
2018-05-12T17:43:20.731Z,41.50
2018-05-12T17:45:49.027Z,41.60
2018-05-12T17:48:17.312Z,42.00
2018-05-12T17:50:45.614Z,42.30
2018-05-12T17:53:13.887Z,42.70
2018-05-12T17:55:42.306Z,43.10
2018-05-12T17:58:10.491Z,43.40
2018-05-12T18:00:38.788Z,43.70
2018-05-12T18:03:07.075Z,44.20
2018-05-12T18:05:35.387Z,44.40
2018-05-12T18:08:03.662Z,44.90
2018-05-12T18:10:31.955Z,44.90
2018-05-12T18:13:01.030Z,45.20
2018-05-12T18:15:29.639Z,45.30
2018-05-12T18:17:57.914Z,45.50
2018-05-12T18:20:26.206Z,45.90
2018-05-12T18:22:55.259Z,45.90
2018-05-12T18:25:23.545Z,46.00
2018-05-12T18:27:51.875Z,46.10
2018-05-12T18:30:20.226Z,46.30
2018-05-12T18:32:49.271Z,46.50
2018-05-12T18:35:18.413Z,46.80
2018-05-12T18:37:47.504Z,47.20
2018-05-12T18:40:15.827Z,47.10
2018-05-12T18:42:44.087Z,47.30
2018-05-12T18:45:12.368Z,47.60
2018-05-12T18:47:40.676Z,47.80
2018-05-12T18:50:08.957Z,48.10
2018-05-12T18:52:37.247Z,48.30
2018-05-12T18:55:05.625Z,48.50
2018-05-12T18:57:33.925Z,48.70
2018-05-12T19:00:02.219Z,48.80
2018-05-12T19:02:31.289Z,49.20
2018-05-12T19:04:59.611Z,49.10
2018-05-12T19:07:28.651Z,50.10
2018-05-12T19:09:57.008Z,49.50
2018-05-12T19:12:25.301Z,49.80
2018-05-12T19:14:53.562Z,49.90
2018-05-12T19:17:21.861Z,50.00
2018-05-12T19:19:50.151Z,50.40
2018-05-12T19:22:18.533Z,50.60
2018-05-12T19:24:46.795Z,51.00
2018-05-12T19:27:15.155Z,51.20
2018-05-12T19:29:43.456Z,51.40
2018-05-12T19:32:11.921Z,51.70
2018-05-12T19:34:40.218Z,52.10
2018-05-12T19:37:08.477Z,52.40
2018-05-12T19:39:36.939Z,52.50
2018-05-12T19:42:05.995Z,53.10
2018-05-12T19:44:34.433Z,53.00
2018-05-12T19:47:02.708Z,53.10
2018-05-12T19:49:31.014Z,53.50
2018-05-12T19:51:59.494Z,53.70
2018-05-12T19:54:27.838Z,54.00
2018-05-12T19:56:56.253Z,54.20
2018-05-12T19:59:24.476Z,54.50
2018-05-12T20:01:54.481Z,55.00
2018-05-12T20:04:22.801Z,55.70
2018-05-12T20:06:51.162Z,55.30
2018-05-12T20:09:20.424Z,55.80
2018-05-12T20:11:48.738Z,55.80
2018-05-12T20:14:17.108Z,56.00
2018-05-12T20:16:46.199Z,56.50
2018-05-12T20:19:14.538Z,56.50
2018-05-12T20:21:44.195Z,56.80
2018-05-12T20:24:13.464Z,57.20
2018-05-12T20:26:41.719Z,57.10
2018-05-12T20:29:10.132Z,57.30
2018-05-12T20:31:38.799Z,57.40
2018-05-12T20:34:07.094Z,57.60
2018-05-12T20:36:35.371Z,57.80
2018-05-12T20:39:03.707Z,58.00
2018-05-12T20:41:32.033Z,58.10
2018-05-12T20:44:00.381Z,58.20
2018-05-12T20:46:28.772Z,58.40
2018-05-12T20:48:57.129Z,58.80
2018-05-12T20:51:25.387Z,58.80
2018-05-12T20:53:54.450Z,59.10
2018-05-12T20:56:22.762Z,59.10
2018-05-12T20:58:51.803Z,59.50
2018-05-12T21:01:20.117Z,59.40
2018-05-12T21:03:48.418Z,59.60
2018-05-12T21:06:17.454Z,59.90
2018-05-12T21:08:45.755Z,59.80
2018-05-12T21:11:14.058Z,60.20
2018-05-12T21:13:43.120Z,60.50
2018-05-12T21:16:11.401Z,60.50
2018-05-12T21:18:40.496Z,60.90
2018-05-12T21:21:08.784Z,60.80
2018-05-12T21:23:37.137Z,60.80
2018-05-12T21:26:05.412Z,61.00
2018-05-12T21:28:33.663Z,61.10
2018-05-12T21:31:01.964Z,61.30
2018-05-12T21:33:30.259Z,61.40
2018-05-12T21:35:58.546Z,61.70
2018-05-12T21:38:26.846Z,61.80
2018-05-12T21:40:55.879Z,62.20
2018-05-12T21:43:24.202Z,62.30
2018-05-12T21:45:52.478Z,62.50
2018-05-12T21:48:21.552Z,63.00
2018-05-12T21:50:49.816Z,62.90
2018-05-12T21:53:18.122Z,63.00
2018-05-12T21:55:46.420Z,63.10
2018-05-12T21:58:14.671Z,63.30
2018-05-12T22:00:42.988Z,63.50
2018-05-12T22:03:11.559Z,63.60
2018-05-12T22:05:40.128Z,63.60
2018-05-12T22:08:08.424Z,63.80
2018-05-12T22:10:36.721Z,64.00
2018-05-12T22:13:05.012Z,64.10
2018-05-12T22:15:33.322Z,64.20
2018-05-12T22:18:01.630Z,65.10
2018-05-12T22:20:30.335Z,64.50
2018-05-12T22:22:58.732Z,64.70
2018-05-12T22:25:27.016Z,64.60
2018-05-12T22:27:55.285Z,64.70
2018-05-12T22:30:23.703Z,64.80
2018-05-12T22:32:52.120Z,64.90
2018-05-12T22:35:20.475Z,64.40
2018-05-12T22:37:48.749Z,65.10
2018-05-12T22:40:17.096Z,65.20
2018-05-12T22:42:45.382Z,65.30
2018-05-12T22:45:13.663Z,65.60
2018-05-12T22:47:41.954Z,65.70
2018-05-12T22:50:10.252Z,65.90
2018-05-12T22:52:39.302Z,66.20
2018-05-12T22:55:07.616Z,66.20
2018-05-12T22:57:35.879Z,66.30
2018-05-12T23:00:04.199Z,66.20
2018-05-12T23:02:32.236Z,66.50
2018-05-12T23:05:00.519Z,66.50
2018-05-12T23:07:28.820Z,66.70
2018-05-12T23:09:57.335Z,66.90
2018-05-12T23:12:26.038Z,67.00
2018-05-12T23:14:54.315Z,67.10
2018-05-12T23:17:22.579Z,67.20
2018-05-12T23:19:51.009Z,67.50
2018-05-12T23:22:19.281Z,67.60
2018-05-12T23:24:47.938Z,67.70
2018-05-12T23:27:16.215Z,68.00
2018-05-12T23:29:44.480Z,68.00
2018-05-12T23:32:13.234Z,68.10
2018-05-12T23:34:41.502Z,68.20
2018-05-12T23:37:09.834Z,68.30
2018-05-12T23:39:38.129Z,68.40
2018-05-12T23:42:06.400Z,68.60
2018-05-12T23:44:34.682Z,68.70
2018-05-12T23:47:02.978Z,68.70
2018-05-12T23:49:31.272Z,68.90
2018-05-12T23:51:59.545Z,69.20
2018-05-12T23:54:27.810Z,69.20
2018-05-12T23:56:56.105Z,69.30
2018-05-12T23:59:24.384Z,69.60
